Time;durP1;ratioP1;P1;durP2;ratioP2;P2;SDS_P1;SDS_P2;PMS_P1;PMS_P2;Temp;Humidity;BMP_temperature;BMP_pressure;BME280_temperature;BME280_humidity;BME280_pressure;Samples;Min_cycle;Max_cycle;Signal;HPM_P1;HPM_P2
2023/06/02 00:01:18;;;;;;;1.40;1.30;;;16.90;54.90;;;;;;5112879;27;20650;-72
2023/06/02 00:03:45;;;;;;;2.27;2.07;;;16.90;55.40;;;;;;5122457;27;20654;-71
2023/06/02 00:06:15;;;;;;;1.57;1.40;;;16.70;56.00;;;;;;5114449;28;20650;-72
2023/06/02 00:08:42;;;;;;;4.17;1.87;;;16.60;56.10;;;;;;5107587;27;20651;-71
2023/06/02 00:11:12;;;;;;;2.10;1.60;;;16.50;55.90;;;;;;5117739;27;20655;-71
2023/06/02 00:13:41;;;;;;;2.10;1.40;;;16.60;56.20;;;;;;5120017;28;20674;-72
2023/06/02 00:16:08;;;;;;;1.73;1.63;;;16.50;55.80;;;;;;5111568;28;20658;-72
2023/06/02 00:18:37;;;;;;;3.00;1.40;;;16.40;55.80;;;;;;5116255;28;20700;-72
2023/06/02 00:21:06;;;;;;;3.23;1.97;;;16.30;56.20;;;;;;5118022;28;20662;-72
2023/06/02 00:23:33;;;;;;;1.50;1.40;;;16.20;56.00;;;;;;5120124;28;20656;-71
2023/06/02 00:26:00;;;;;;;2.07;1.50;;;16.10;56.80;;;;;;5118752;28;20781;-72
2023/06/02 00:28:29;;;;;;;2.97;1.53;;;15.90;57.00;;;;;;5116753;28;20618;-71
2023/06/02 00:30:56;;;;;;;2.50;2.20;;;15.90;57.60;;;;;;5115558;28;20689;-71
2023/06/02 00:33:23;;;;;;;3.87;2.10;;;15.90;57.40;;;;;;5119166;27;21265;-71
2023/06/02 00:35:50;;;;;;;2.33;1.83;;;15.80;57.40;;;;;;5113945;28;20768;-71
2023/06/02 00:38:17;;;;;;;1.47;1.37;;;15.90;57.40;;;;;;5122630;28;20652;-72
2023/06/02 00:40:44;;;;;;;1.73;1.60;;;16.00;57.10;;;;;;5115198;27;20688;-72
2023/06/02 00:43:11;;;;;;;1.80;1.40;;;15.90;57.20;;;;;;5109890;28;20980;-72
2023/06/02 00:45:39;;;;;;;1.27;1.17;;;15.90;56.80;;;;;;5101163;27;20680;-72
2023/06/02 00:48:07;;;;;;;2.70;1.67;;;16.00;57.20;;;;;;5124049;27;20637;-72
2023/06/02 00:50:34;;;;;;;1.43;1.33;;;16.10;57.40;;;;;;5102352;27;20660;-72
2023/06/02 00:53:02;;;;;;;3.83;2.77;;;16.00;56.90;;;;;;5108683;27;20720;-72
2023/06/02 00:55:29;;;;;;;3.23;2.07;;;16.10;56.60;;;;;;5120702;27;20657;-72
2023/06/02 00:57:58;;;;;;;2.67;2.00;;;16.10;56.20;;;;;;5119154;27;21245;-71
2023/06/02 01:00:26;;;;;;;1.87;1.77;;;15.90;56.90;;;;;;5120587;27;21100;-71
2023/06/02 01:02:57;;;;;;;1.43;1.33;;;15.90;56.20;;;;;;5125047;27;20646;-71
2023/06/02 01:05:24;;;;;;;2.20;1.60;;;15.80;55.60;;;;;;5118227;27;21044;-71
2023/06/02 01:07:58;;;;;;;7.53;1.87;;;15.80;55.60;;;;;;5118854;27;20621;-72
2023/06/02 01:10:26;;;;;;;2.60;1.60;;;15.80;55.80;;;;;;5114528;27;20654;-71
2023/06/02 01:12:54;;;;;;;2.43;1.77;;;15.80;55.70;;;;;;5113557;27;20700;-72
2023/06/02 01:15:20;;;;;;;1.37;1.20;;;15.80;55.80;;;;;;5112971;27;20621;-71
2023/06/02 01:17:50;;;;;;;4.60;1.50;;;15.70;56.00;;;;;;5117723;27;20630;-72
2023/06/02 01:20:22;;;;;;;1.90;1.60;;;15.70;55.90;;;;;;5120370;27;20633;-72
2023/06/02 01:22:58;;;;;;;3.50;1.70;;;15.80;55.90;;;;;;5113995;27;21005;-72
2023/06/02 01:25:28;;;;;;;1.20;1.10;;;15.90;56.10;;;;;;5107421;27;20694;-72
2023/06/02 01:27:57;;;;;;;1.63;1.53;;;15.80;55.90;;;;;;5116694;27;21229;-71
2023/06/02 01:30:28;;;;;;;2.93;1.60;;;15.80;56.00;;;;;;5099996;27;20659;-71
2023/06/02 01:33:02;;;;;;;3.20;1.30;;;15.80;56.10;;;;;;5115832;27;20651;-72
2023/06/02 01:35:38;;;;;;;1.87;1.40;;;15.70;56.30;;;;;;5101046;27;20659;-72
2023/06/02 01:38:06;;;;;;;1.50;1.37;;;15.70;56.10;;;;;;5114481;27;20660;-72
2023/06/02 01:40:36;;;;;;;1.33;1.23;;;15.70;55.90;;;;;;5113625;27;20682;-72
2023/06/02 01:43:04;;;;;;;1.73;1.47;;;15.60;56.40;;;;;;5123871;27;20654;-72
2023/06/02 01:45:34;;;;;;;4.13;1.70;;;15.50;56.60;;;;;;5117936;27;20669;-72
2023/06/02 01:48:03;;;;;;;2.07;1.87;;;15.50;56.40;;;;;;5118590;27;20626;-71
2023/06/02 01:50:32;;;;;;;2.17;1.50;;;15.50;56.50;;;;;;5115239;27;20834;-71
2023/06/02 01:52:59;;;;;;;1.73;1.63;;;15.40;56.60;;;;;;5114927;27;20625;-71
2023/06/02 01:55:27;;;;;;;2.03;1.93;;;15.50;56.70;;;;;;5117369;27;20744;-72
2023/06/02 01:57:57;;;;;;;2.37;1.67;;;15.40;56.90;;;;;;5107205;27;20632;-71
2023/06/02 02:00:24;;;;;;;2.30;1.80;;;15.40;57.10;;;;;;5117406;27;20656;-72
2023/06/02 02:02:51;;;;;;;3.10;2.30;;;15.30;57.30;;;;;;5114956;27;20989;-71
2023/06/02 02:05:20;;;;;;;2.00;1.53;;;15.20;57.50;;;;;;5110595;27;20727;-72
2023/06/02 02:07:50;;;;;;;4.23;2.23;;;15.40;57.50;;;;;;5118599;27;20626;-72
2023/06/02 02:10:18;;;;;;;2.03;1.50;;;15.50;57.50;;;;;;5120710;27;20977;-72
2023/06/02 02:12:46;;;;;;;1.90;1.80;;;15.20;57.40;;;;;;5119277;27;20621;-72
2023/06/02 02:15:15;;;;;;;1.57;1.37;;;15.20;57.90;;;;;;5110413;27;20614;-71
2023/06/02 02:17:47;;;;;;;1.57;1.43;;;15.10;58.80;;;;;;5114917;27;20624;-72
2023/06/02 02:20:15;;;;;;;3.43;1.63;;;15.10;58.50;;;;;;5107952;27;20640;-72
2023/06/02 02:22:42;;;;;;;2.33;1.93;;;15.10;58.20;;;;;;5112458;27;21192;-72
2023/06/02 02:25:09;;;;;;;1.30;1.20;;;15.00;58.50;;;;;;5119014;27;20654;-72
2023/06/02 02:27:36;;;;;;;2.57;1.97;;;15.00;59.00;;;;;;5116038;27;21051;-72
2023/06/02 02:30:05;;;;;;;2.73;2.30;;;14.80;58.60;;;;;;5113490;27;20981;-72
2023/06/02 02:32:36;;;;;;;1.73;1.63;;;14.80;58.90;;;;;;5123883;27;20657;-71
2023/06/02 02:35:04;;;;;;;2.57;2.37;;;14.80;59.10;;;;;;5117851;27;20621;-72
2023/06/02 02:37:32;;;;;;;3.20;2.00;;;14.70;59.20;;;;;;5115095;27;20984;-71
2023/06/02 02:40:00;;;;;;;2.20;1.87;;;14.70;59.40;;;;;;5114330;27;20985;-72
2023/06/02 02:42:26;;;;;;;2.40;1.63;;;14.60;59.50;;;;;;5113950;27;20714;-71
2023/06/02 02:44:55;;;;;;;2.37;1.90;;;14.60;59.70;;;;;;5119485;27;20663;-72
2023/06/02 02:47:23;;;;;;;4.17;2.20;;;14.60;59.80;;;;;;5115005;27;20652;-71
2023/06/02 02:49:51;;;;;;;2.90;2.40;;;14.70;60.00;;;;;;5111145;27;20616;-71
2023/06/02 02:52:24;;;;;;;2.20;1.60;;;14.60;60.00;;;;;;5113440;27;20716;-72
2023/06/02 02:54:50;;;;;;;1.60;1.50;;;14.50;60.70;;;;;;5117103;27;20658;-72
2023/06/02 02:57:18;;;;;;;1.60;1.50;;;14.50;61.10;;;;;;5116580;27;20652;-72
2023/06/02 02:59:45;;;;;;;1.80;1.63;;;14.40;61.00;;;;;;5115253;27;20628;-71
2023/06/02 03:02:13;;;;;;;2.03;1.83;;;14.50;60.70;;;;;;5112263;27;21090;-71
2023/06/02 03:04:41;;;;;;;2.57;2.17;;;14.20;61.30;;;;;;5111406;27;20787;-71
2023/06/02 03:07:09;;;;;;;4.00;2.77;;;14.50;61.90;;;;;;5109156;27;20672;-71
2023/06/02 03:09:37;;;;;;;2.03;1.70;;;14.40;62.00;;;;;;5112074;27;20736;-71
2023/06/02 03:12:05;;;;;;;3.60;2.17;;;14.40;62.10;;;;;;5115089;27;20664;-72
2023/06/02 03:14:34;;;;;;;2.20;1.50;;;14.30;62.30;;;;;;5120128;27;20763;-71
2023/06/02 03:17:02;;;;;;;2.87;2.03;;;14.10;62.70;;;;;;5118194;27;20686;-71
2023/06/02 03:19:29;;;;;;;3.03;1.97;;;14.20;63.40;;;;;;5115466;27;20631;-71
2023/06/02 03:21:57;;;;;;;3.77;2.23;;;14.30;63.50;;;;;;5116388;27;20687;-71
2023/06/02 03:24:25;;;;;;;2.90;2.10;;;14.40;62.80;;;;;;5101673;27;20666;-71
2023/06/02 03:26:55;;;;;;;1.83;1.70;;;14.30;63.30;;;;;;5109756;27;20654;-72
2023/06/02 03:29:22;;;;;;;3.93;2.70;;;14.20;63.90;;;;;;5115985;27;20685;-71
2023/06/02 03:31:53;;;;;;;2.40;1.77;;;13.90;65.20;;;;;;5114700;27;20712;-71
2023/06/02 03:34:20;;;;;;;3.73;2.60;;;13.90;66.80;;;;;;5117722;27;20743;-71
2023/06/02 03:36:49;;;;;;;2.80;1.80;;;13.90;66.00;;;;;;5111409;27;20751;-71
2023/06/02 03:39:16;;;;;;;3.63;2.47;;;13.80;66.60;;;;;;5116805;27;20979;-71
2023/06/02 03:41:44;;;;;;;2.63;2.40;;;13.80;67.00;;;;;;5111209;27;21139;-71
2023/06/02 03:44:11;;;;;;;4.77;2.20;;;13.80;67.40;;;;;;5114665;27;20627;-71
2023/06/02 03:46:38;;;;;;;3.00;2.10;;;13.70;68.00;;;;;;5109141;27;21081;-71
2023/06/02 03:49:05;;;;;;;1.93;1.53;;;13.80;68.80;;;;;;5116104;27;20989;-71
2023/06/02 03:51:31;;;;;;;2.47;2.27;;;13.90;69.00;;;;;;5113581;27;20775;-71
2023/06/02 03:53:58;;;;;;;2.13;1.90;;;13.80;68.60;;;;;;5116988;27;20625;-71
2023/06/02 03:56:25;;;;;;;3.90;2.40;;;13.90;68.20;;;;;;5109364;27;21253;-71
2023/06/02 03:58:53;;;;;;;2.73;2.20;;;13.90;68.40;;;;;;5106830;27;20719;-71
2023/06/02 04:01:21;;;;;;;2.97;2.33;;;13.80;69.00;;;;;;5111138;27;21228;-71
2023/06/02 04:03:48;;;;;;;2.57;2.37;;;13.90;69.20;;;;;;5110814;27;20631;-71
2023/06/02 04:06:15;;;;;;;3.83;2.43;;;13.80;69.40;;;;;;5113090;27;21095;-72
2023/06/02 04:08:42;;;;;;;3.87;2.40;;;13.80;69.40;;;;;;5118948;27;20632;-71
2023/06/02 04:11:09;;;;;;;2.03;1.83;;;13.70;70.00;;;;;;5107694;28;20647;-71
2023/06/02 04:13:36;;;;;;;1.87;1.70;;;13.60;70.60;;;;;;5112908;28;20627;-71
2023/06/02 04:16:04;;;;;;;3.97;2.30;;;13.50;71.20;;;;;;5106326;27;20652;-71
2023/06/02 04:18:32;;;;;;;3.20;2.00;;;13.50;71.80;;;;;;5111154;28;20654;-71
2023/06/02 04:20:59;;;;;;;2.67;2.47;;;13.50;72.20;;;;;;5112203;27;21007;-71
2023/06/02 04:23:26;;;;;;;5.03;4.53;;;13.60;72.30;;;;;;5126530;27;20626;-71
2023/06/02 04:25:53;;;;;;;5.13;2.20;;;13.80;71.70;;;;;;5112871;27;20747;-71
2023/06/02 04:28:20;;;;;;;2.90;2.60;;;13.80;71.90;;;;;;5117792;27;20620;-71
2023/06/02 04:30:48;;;;;;;3.10;2.13;;;13.70;72.60;;;;;;5119094;27;21148;-71
2023/06/02 04:33:16;;;;;;;2.73;1.90;;;13.60;73.10;;;;;;5122718;27;20731;-71
2023/06/02 04:35:43;;;;;;;4.60;2.23;;;13.60;73.30;;;;;;5122346;27;20648;-71
2023/06/02 04:38:11;;;;;;;2.33;1.67;;;13.60;73.50;;;;;;5111596;27;20725;-71
2023/06/02 04:40:39;;;;;;;3.57;2.90;;;13.60;73.90;;;;;;5121062;27;20668;-71
2023/06/02 04:43:06;;;;;;;2.83;1.93;;;13.50;74.50;;;;;;5115382;27;20619;-70
2023/06/02 04:45:33;;;;;;;2.93;2.33;;;13.60;74.70;;;;;;5100554;27;20673;-71
2023/06/02 04:48:00;;;;;;;2.73;2.33;;;13.50;74.50;;;;;;5121667;27;20627;-71
2023/06/02 04:50:29;;;;;;;2.17;1.97;;;13.60;74.90;;;;;;5121000;27;20657;-70
2023/06/02 04:52:55;;;;;;;3.27;2.07;;;13.50;75.10;;;;;;5119833;27;20627;-69
2023/06/02 04:55:22;;;;;;;3.17;2.43;;;13.50;76.20;;;;;;5113437;27;21093;-71
2023/06/02 04:57:49;;;;;;;2.83;1.37;;;13.70;75.40;;;;;;5114446;27;20634;-72
2023/06/02 05:00:16;;;;;;;2.47;2.10;;;13.60;75.80;;;;;;5096023;27;20636;-73
2023/06/02 05:02:43;;;;;;;4.43;2.70;;;13.70;76.20;;;;;;5101433;27;20628;-72
2023/06/02 05:05:10;;;;;;;3.77;2.27;;;14.00;75.90;;;;;;5108889;27;20818;-72
2023/06/02 05:07:38;;;;;;;4.17;2.50;;;13.90;75.60;;;;;;5114728;27;21007;-74
2023/06/02 05:10:06;;;;;;;3.07;2.00;;;14.10;75.60;;;;;;5118693;27;20632;-73
2023/06/02 05:12:33;;;;;;;4.10;2.27;;;14.20;74.40;;;;;;5118290;27;20627;-72
2023/06/02 05:15:00;;;;;;;3.70;2.23;;;14.40;74.70;;;;;;5119982;27;20627;-72
2023/06/02 05:17:28;;;;;;;2.13;1.97;;;13.80;75.50;;;;;;5113988;27;20656;-72
2023/06/02 05:19:55;;;;;;;2.40;2.20;;;13.60;76.90;;;;;;5119313;27;20622;-75
2023/06/02 05:22:22;;;;;;;2.97;2.77;;;13.60;78.00;;;;;;5122533;27;20642;-73
2023/06/02 05:24:50;;;;;;;2.70;2.33;;;13.70;78.30;;;;;;5119437;27;20630;-72
2023/06/02 05:27:17;;;;;;;3.23;2.37;;;13.50;78.20;;;;;;5110802;27;20999;-74
2023/06/02 05:29:44;;;;;;;3.60;2.87;;;13.60;78.90;;;;;;5106506;27;20623;-73
2023/06/02 05:32:11;;;;;;;4.10;2.67;;;13.50;78.80;;;;;;5111988;27;20673;-73
2023/06/02 05:34:39;;;;;;;3.30;2.53;;;13.50;79.30;;;;;;5116950;27;21301;-72
2023/06/02 05:37:06;;;;;;;2.93;2.40;;;13.70;79.20;;;;;;5113364;27;20635;-72
2023/06/02 05:39:33;;;;;;;2.40;2.20;;;13.60;79.10;;;;;;5094543;27;20636;-72
2023/06/02 05:42:01;;;;;;;4.50;3.00;;;13.70;79.40;;;;;;5095516;27;20639;-72
2023/06/02 05:44:28;;;;;;;4.23;2.40;;;13.80;79.10;;;;;;5108051;27;20622;-72
2023/06/02 05:46:54;;;;;;;6.30;3.13;;;13.70;79.60;;;;;;5111052;27;20752;-72
2023/06/02 05:49:21;;;;;;;9.23;3.90;;;13.80;79.80;;;;;;5098106;27;20641;-72
2023/06/02 05:51:48;;;;;;;3.50;2.73;;;13.90;80.60;;;;;;5106496;28;21238;-72
2023/06/02 05:54:15;;;;;;;5.13;3.90;;;13.80;80.00;;;;;;5114542;27;20628;-72
2023/06/02 05:56:41;;;;;;;4.53;3.37;;;13.90;80.00;;;;;;5112250;27;20645;-72
2023/06/02 05:59:09;;;;;;;3.20;2.83;;;14.20;79.90;;;;;;5115084;27;20616;-72
2023/06/02 06:01:36;;;;;;;4.00;2.70;;;14.30;79.20;;;;;;5104599;27;20651;-72
2023/06/02 06:04:04;;;;;;;7.00;2.90;;;14.40;79.80;;;;;;5112613;27;21045;-72
2023/06/02 06:06:30;;;;;;;5.13;2.20;;;14.60;79.20;;;;;;5109437;27;20770;-72
2023/06/02 06:08:57;;;;;;;3.17;2.30;;;14.20;79.50;;;;;;5100558;27;20620;-71
2023/06/02 06:11:24;;;;;;;3.63;2.63;;;13.90;80.50;;;;;;5120090;27;20653;-72
2023/06/02 06:13:51;;;;;;;2.83;2.43;;;14.10;80.60;;;;;;5115814;27;20642;-72
2023/06/02 06:16:19;;;;;;;4.23;2.30;;;14.20;80.60;;;;;;5119470;27;20670;-72
2023/06/02 06:18:46;;;;;;;4.00;2.80;;;14.20;80.60;;;;;;5118718;27;20648;-72
2023/06/02 06:21:13;;;;;;;3.50;2.33;;;14.10;80.80;;;;;;5118327;27;20654;-72
2023/06/02 06:23:40;;;;;;;4.67;2.57;;;14.10;81.40;;;;;;5106890;27;20656;-72
2023/06/02 06:26:07;;;;;;;4.10;3.13;;;14.50;80.40;;;;;;5119514;27;20716;-72
2023/06/02 06:28:33;;;;;;;3.33;2.80;;;14.70;80.30;;;;;;5111430;27;20621;-72
2023/06/02 06:31:00;;;;;;;3.77;2.83;;;14.60;80.10;;;;;;5110432;27;20658;-71
2023/06/02 06:33:29;;;;;;;3.27;2.40;;;14.40;80.50;;;;;;5121011;27;20718;-71
2023/06/02 06:35:56;;;;;;;4.47;2.67;;;14.50;80.50;;;;;;5118365;27;20687;-72
2023/06/02 06:38:22;;;;;;;3.43;2.43;;;14.50;80.50;;;;;;5118862;27;20628;-72
2023/06/02 06:40:49;;;;;;;4.17;2.90;;;14.60;80.90;;;;;;5118486;27;20665;-71
2023/06/02 06:43:16;;;;;;;3.77;2.60;;;14.40;80.70;;;;;;5111145;27;20630;-72
2023/06/02 06:45:43;;;;;;;5.00;2.40;;;14.50;81.10;;;;;;5117997;27;20711;-71
2023/06/02 06:48:10;;;;;;;3.57;2.77;;;14.60;80.10;;;;;;5120318;27;20662;-71
2023/06/02 06:50:38;;;;;;;4.10;3.47;;;14.60;80.90;;;;;;5102943;27;20649;-72
2023/06/02 06:53:05;;;;;;;4.77;1.93;;;14.60;80.30;;;;;;5115759;27;20643;-72
2023/06/02 06:55:32;;;;;;;3.03;2.67;;;14.90;80.60;;;;;;5112842;27;20648;-71
2023/06/02 06:57:58;;;;;;;3.00;2.33;;;14.90;80.30;;;;;;5103768;27;20622;-71
2023/06/02 07:00:39;;;;;;;3.10;2.43;;;14.80;80.80;;;;;;5106750;27;20661;-72
2023/06/02 07:03:06;;;;;;;4.67;3.30;;;14.70;79.80;;;;;;5113455;27;20622;-71
2023/06/02 07:05:33;;;;;;;6.10;2.97;;;15.00;79.70;;;;;;5112347;27;20669;-72
2023/06/02 07:08:01;;;;;;;3.93;2.70;;;15.30;79.60;;;;;;5102081;27;20632;-71
2023/06/02 07:10:28;;;;;;;4.93;2.90;;;15.50;78.90;;;;;;5111933;27;20681;-71
2023/06/02 07:12:55;;;;;;;5.03;2.73;;;15.60;77.50;;;;;;5114556;27;21144;-71
2023/06/02 07:15:22;;;;;;;4.50;3.17;;;15.50;78.10;;;;;;5110947;27;20623;-71
2023/06/02 07:17:48;;;;;;;2.50;2.30;;;15.40;78.80;;;;;;5122236;27;20624;-72
2023/06/02 07:20:15;;;;;;;6.60;2.60;;;15.40;78.80;;;;;;5114838;27;20632;-72
2023/06/02 07:22:42;;;;;;;3.10;2.80;;;15.50;79.30;;;;;;5116552;27;20671;-72
2023/06/02 07:25:11;;;;;;;4.30;2.83;;;15.60;77.70;;;;;;5114357;27;21215;-72
2023/06/02 07:27:38;;;;;;;2.40;1.73;;;15.40;78.50;;;;;;5109871;27;20664;-72
2023/06/02 07:30:06;;;;;;;2.57;1.57;;;15.40;78.70;;;;;;5110173;27;20629;-72
2023/06/02 07:32:32;;;;;;;4.30;3.90;;;15.50;78.90;;;;;;5118173;27;20656;-72
2023/06/02 07:34:59;;;;;;;3.00;2.70;;;15.70;79.20;;;;;;5115155;27;20982;-72
2023/06/02 07:37:26;;;;;;;2.93;2.30;;;15.80;78.30;;;;;;5118562;27;20695;-72
2023/06/02 07:39:53;;;;;;;2.60;2.30;;;15.90;78.50;;;;;;5111232;27;20635;-72
2023/06/02 07:42:21;;;;;;;5.57;2.80;;;15.90;78.20;;;;;;5111627;27;20656;-72
2023/06/02 07:44:48;;;;;;;5.27;3.00;;;16.00;77.20;;;;;;5108831;27;20661;-72
2023/06/02 07:47:15;;;;;;;3.10;2.33;;;16.50;76.90;;;;;;5119155;27;20672;-72
2023/06/02 07:49:42;;;;;;;4.60;3.30;;;16.40;75.80;;;;;;5103202;27;20621;-72
2023/06/02 07:52:09;;;;;;;3.80;3.00;;;16.20;76.40;;;;;;5114896;27;20668;-72
2023/06/02 07:54:35;;;;;;;4.23;2.50;;;16.30;76.30;;;;;;5115480;27;20625;-72
2023/06/02 07:57:02;;;;;;;2.57;2.10;;;16.40;75.70;;;;;;5101303;27;20657;-72
2023/06/02 07:59:30;;;;;;;3.17;2.50;;;16.30;76.70;;;;;;5102604;27;20713;-72
2023/06/02 08:01:57;;;;;;;3.03;2.37;;;16.40;76.00;;;;;;5114909;28;20661;-72
2023/06/02 08:04:25;;;;;;;5.00;3.17;;;16.30;75.90;;;;;;5102338;27;20623;-72
2023/06/02 08:06:54;;;;;;;3.20;2.17;;;16.40;76.30;;;;;;5112228;27;20674;-72
2023/06/02 08:09:22;;;;;;;3.00;2.00;;;16.90;76.40;;;;;;5117391;27;20629;-72
2023/06/02 08:11:49;;;;;;;5.90;3.50;;;17.50;73.60;;;;;;5118200;28;20652;-72
2023/06/02 08:14:16;;;;;;;2.53;2.33;;;17.50;72.40;;;;;;5103271;27;20624;-72
2023/06/02 08:16:45;;;;;;;3.30;2.37;;;17.80;70.80;;;;;;5105287;28;20661;-72
2023/06/02 08:19:12;;;;;;;3.50;2.43;;;17.90;71.30;;;;;;5115179;28;21064;-72
2023/06/02 08:21:40;;;;;;;3.17;2.87;;;18.10;71.10;;;;;;5112059;28;21257;-72
2023/06/02 08:24:07;;;;;;;2.60;2.33;;;17.90;70.30;;;;;;5109730;28;20751;-72
2023/06/02 08:26:34;;;;;;;4.10;2.57;;;17.70;71.40;;;;;;5111722;28;20670;-72
2023/06/02 08:29:00;;;;;;;3.70;2.63;;;18.20;71.50;;;;;;5116354;27;20977;-72
2023/06/02 08:31:27;;;;;;;3.47;2.67;;;18.30;70.30;;;;;;5114551;28;20663;-72
2023/06/02 08:33:56;;;;;;;3.83;2.57;;;18.60;69.80;;;;;;5111478;27;20632;-72
2023/06/02 08:36:23;;;;;;;4.33;2.90;;;18.50;69.20;;;;;;5112224;28;20644;-72
2023/06/02 08:38:52;;;;;;;3.30;2.40;;;18.20;68.50;;;;;;5113425;27;20616;-72
2023/06/02 08:41:19;;;;;;;3.60;2.33;;;18.20;70.80;;;;;;5112848;28;21112;-72
2023/06/02 08:43:46;;;;;;;3.47;2.30;;;18.60;69.40;;;;;;5106772;28;20628;-72
2023/06/02 08:46:14;;;;;;;2.10;1.90;;;18.80;70.00;;;;;;5100032;28;20753;-72
2023/06/02 08:48:45;;;;;;;3.30;3.00;;;18.80;68.60;;;;;;5110314;27;20738;-72
2023/06/02 08:51:20;;;;;;;4.03;2.60;;;18.40;68.80;;;;;;5106213;28;20675;-72
2023/06/02 08:53:48;;;;;;;2.73;2.53;;;18.40;69.20;;;;;;5108535;27;20626;-72
2023/06/02 08:56:16;;;;;;;3.80;2.80;;;18.70;69.40;;;;;;5103123;27;20792;-72
2023/06/02 08:58:45;;;;;;;4.30;2.53;;;19.00;68.20;;;;;;5119687;28;20623;-71
2023/06/02 09:01:11;;;;;;;3.03;2.50;;;19.20;67.40;;;;;;5108448;28;21052;-72
2023/06/02 09:03:41;;;;;;;3.20;2.53;;;19.10;66.50;;;;;;5109981;28;21193;-72
2023/06/02 09:06:28;;;;;;;3.37;2.30;;;19.00;66.80;;;;;;5107976;27;20673;-72
2023/06/02 09:08:57;;;;;;;3.10;2.77;;;19.40;66.80;;;;;;5113365;27;20680;-72
2023/06/02 09:11:25;;;;;;;2.80;2.60;;;19.70;66.30;;;;;;5122832;27;20700;-72
2023/06/02 09:13:53;;;;;;;3.47;2.93;;;19.50;67.20;;;;;;5119528;27;20627;-72
2023/06/02 09:16:21;;;;;;;3.83;2.83;;;19.00;66.70;;;;;;5107515;27;21291;-72
2023/06/02 09:18:58;;;;;;;3.70;2.70;;;19.40;67.90;;;;;;5123032;27;20630;-72
2023/06/02 09:21:28;;;;;;;3.60;3.30;;;19.60;66.10;;;;;;5118036;27;20658;-72
2023/06/02 09:23:56;;;;;;;3.10;2.60;;;19.70;66.80;;;;;;5118833;27;20652;-73
2023/06/02 09:26:25;;;;;;;3.07;2.80;;;19.70;64.50;;;;;;5122825;27;20659;-72
2023/06/02 09:29:04;;;;;;;3.83;2.53;;;19.90;64.70;;;;;;5112042;27;20751;-72
2023/06/02 09:31:44;;;;;;;4.33;2.20;;;19.80;64.20;;;;;;5107569;27;21314;-72
2023/06/02 09:34:11;;;;;;;4.17;3.60;;;19.70;66.10;;;;;;5111617;27;20628;-72
2023/06/02 09:36:39;;;;;;;3.30;3.00;;;20.10;65.30;;;;;;5118290;27;21294;-72
2023/06/02 09:39:07;;;;;;;3.60;2.90;;;20.20;65.10;;;;;;5112563;27;20624;-72
2023/06/02 09:41:35;;;;;;;4.73;2.63;;;20.00;64.20;;;;;;5109656;27;20754;-72
2023/06/02 09:44:03;;;;;;;4.57;3.67;;;20.20;66.80;;;;;;5098208;27;20736;-72
2023/06/02 09:46:31;;;;;;;3.50;3.20;;;20.50;64.00;;;;;;5099906;27;20670;-72
2023/06/02 09:49:01;;;;;;;4.73;2.90;;;20.60;64.70;;;;;;5118565;27;20637;-72
2023/06/02 09:51:27;;;;;;;3.50;3.20;;;20.90;63.80;;;;;;5105480;27;20645;-72
2023/06/02 09:53:57;;;;;;;3.70;3.33;;;21.00;64.10;;;;;;5119174;27;20626;-72
2023/06/02 09:56:27;;;;;;;4.03;3.30;;;20.80;62.80;;;;;;5112237;27;20652;-72
2023/06/02 09:58:54;;;;;;;4.00;3.67;;;21.20;64.30;;;;;;5113597;27;20736;-72
2023/06/02 10:01:22;;;;;;;4.57;3.50;;;21.20;63.30;;;;;;5119119;27;20648;-72
2023/06/02 10:03:48;;;;;;;3.67;3.37;;;21.10;62.20;;;;;;5106433;27;20619;-72
2023/06/02 10:06:26;;;;;;;4.25;3.42;;;21.30;60.90;;;;;;5113730;27;20737;-74
2023/06/02 10:09:06;;;;;;;4.57;4.18;;;21.30;61.30;;;;;;5119659;27;20757;-73
2023/06/02 10:11:42;;;;;;;5.20;3.60;;;21.50;60.40;;;;;;5113860;27;20217;-73
2023/06/02 10:14:22;;;;;;;3.00;2.80;;;21.60;59.90;;;;;;5114422;27;20628;-73
2023/06/02 10:17:01;;;;;;;2.90;2.40;;;21.80;60.20;;;;;;5119193;27;20640;-74
2023/06/02 10:20:03;;;;;;;4.03;3.30;;;21.90;60.20;;;;;;5119377;27;20632;-73
2023/06/02 10:22:50;;;;;;;3.20;2.90;;;22.20;58.00;;;;;;5109466;27;20668;-72
2023/06/02 10:25:27;;;;;;;4.50;2.80;;;22.10;58.00;;;;;;5110895;27;20705;-74
2023/06/02 10:27:55;;;;;;;4.97;3.40;;;22.20;59.00;;;;;;5116242;27;20720;-75
2023/06/02 10:30:23;;;;;;;3.37;3.07;;;22.20;58.00;;;;;;5118292;27;20627;-75
2023/06/02 10:32:51;;;;;;;4.23;3.50;;;21.90;59.00;;;;;;5120214;27;20722;-75
2023/06/02 10:35:19;;;;;;;4.00;3.50;;;21.90;59.10;;;;;;5116034;27;20623;-74
2023/06/02 10:37:45;;;;;;;3.80;3.30;;;21.70;58.50;;;;;;5118105;27;21139;-75
2023/06/02 10:40:14;;;;;;;3.30;2.97;;;21.60;58.60;;;;;;5116918;27;20986;-75
2023/06/02 10:43:11;;;;;;;3.83;2.90;;;21.80;59.20;;;;;;5117543;27;21049;-75
2023/06/02 10:45:41;;;;;;;2.53;2.33;;;22.20;58.60;;;;;;5109529;27;20648;-75
2023/06/02 10:48:36;;;;;;;3.30;2.70;;;22.30;58.10;;;;;;5109207;27;20671;-74
2023/06/02 10:51:04;;;;;;;4.90;3.40;;;22.40;58.90;;;;;;5111278;27;21140;-75
2023/06/02 10:53:32;;;;;;;4.60;3.03;;;22.30;57.30;;;;;;5125814;27;20616;-74
2023/06/02 10:56:38;;;;;;;3.80;3.40;;;22.30;58.60;;;;;;5112530;27;20653;-75
2023/06/02 10:59:07;;;;;;;3.53;2.73;;;22.60;57.20;;;;;;5111674;27;20750;-74
2023/06/02 11:01:51;;;;;;;2.90;2.40;;;23.10;57.60;;;;;;5119068;27;21311;-75
2023/06/02 11:04:33;;;;;;;4.30;2.87;;;23.40;55.10;;;;;;5120826;27;20611;-77
2023/06/02 11:07:21;;;;;;;3.13;2.93;;;23.70;56.60;;;;;;5109356;27;20671;-74
2023/06/02 11:09:51;;;;;;;3.90;2.50;;;23.10;56.40;;;;;;5118454;27;20624;-71
2023/06/02 11:12:18;;;;;;;4.20;3.10;;;23.40;56.70;;;;;;5116799;27;20739;-72
2023/06/02 11:15:14;;;;;;;4.30;3.67;;;23.90;57.40;;;;;;5117674;27;21133;-73
2023/06/02 11:17:42;;;;;;;3.93;3.30;;;24.10;55.40;;;;;;5114235;27;20628;-73
2023/06/02 11:20:10;;;;;;;3.43;3.00;;;24.20;54.80;;;;;;5119726;27;20647;-73
2023/06/02 11:22:37;;;;;;;3.53;2.87;;;24.10;56.20;;;;;;5120578;27;20684;-73
2023/06/02 11:25:05;;;;;;;3.67;2.70;;;24.40;55.00;;;;;;5116733;27;20640;-73
2023/06/02 11:27:37;;;;;;;2.97;2.67;;;24.80;54.10;;;;;;5113010;27;20690;-73
2023/06/02 11:30:09;;;;;;;3.23;2.93;;;24.10;54.60;;;;;;5118861;27;20959;-73
2023/06/02 11:32:37;;;;;;;3.33;3.03;;;24.60;54.20;;;;;;5116303;27;20640;-73
2023/06/02 11:35:05;;;;;;;4.10;3.80;;;25.20;53.00;;;;;;5117858;27;21199;-73
2023/06/02 11:37:33;;;;;;;4.73;3.73;;;25.70;53.50;;;;;;5120692;27;20971;-73
2023/06/02 11:40:00;;;;;;;4.20;3.30;;;25.90;52.20;;;;;;5119018;27;20978;-74
2023/06/02 11:42:35;;;;;;;3.10;2.70;;;26.10;51.30;;;;;;5110939;27;20651;-73
2023/06/02 11:45:02;;;;;;;3.03;2.83;;;25.60;51.90;;;;;;5116225;27;20620;-73
2023/06/02 11:47:28;;;;;;;3.67;2.60;;;26.10;51.90;;;;;;5106977;27;20670;-73
2023/06/02 11:49:57;;;;;;;3.47;3.27;;;26.60;51.90;;;;;;5102271;27;20626;-72
2023/06/02 11:52:24;;;;;;;3.77;2.63;;;27.00;51.00;;;;;;5097539;27;20646;-73
2023/06/02 11:54:52;;;;;;;4.47;3.70;;;27.40;49.30;;;;;;5113509;27;20981;-72
2023/06/02 11:57:28;;;;;;;3.50;3.20;;;27.50;49.10;;;;;;5107474;27;20662;-73
2023/06/02 12:00:09;;;;;;;3.50;3.20;;;27.80;48.70;;;;;;5105238;27;21227;-72
2023/06/02 12:02:38;;;;;;;3.60;3.27;;;28.10;48.10;;;;;;5108592;27;20625;-72
2023/06/02 12:05:08;;;;;;;3.10;2.80;;;28.20;48.10;;;;;;5111299;28;20625;-72
2023/06/02 12:07:35;;;;;;;3.73;3.33;;;28.80;48.30;;;;;;5109991;27;20660;-73
2023/06/02 12:10:03;;;;;;;3.47;3.17;;;30.40;45.80;;;;;;5111836;27;20734;-72
2023/06/02 12:12:31;;;;;;;3.50;3.20;;;30.70;45.30;;;;;;5113436;27;20648;-72
2023/06/02 12:14:58;;;;;;;2.80;2.50;;;31.00;43.40;;;;;;5106021;28;20611;-72
2023/06/02 12:17:25;;;;;;;3.50;3.20;;;31.00;42.90;;;;;;5108380;28;21017;-72
2023/06/02 12:19:58;;;;;;;3.00;2.70;;;31.30;42.80;;;;;;5114567;28;21551;-72
2023/06/02 12:22:26;;;;;;;3.43;3.13;;;31.00;41.90;;;;;;5097362;28;20649;-72
2023/06/02 12:24:53;;;;;;;2.70;2.50;;;31.30;43.80;;;;;;5111186;27;20639;-72
2023/06/02 12:27:24;;;;;;;2.40;2.20;;;31.50;42.10;;;;;;5117388;28;20659;-72
2023/06/02 12:29:51;;;;;;;3.43;2.87;;;31.00;42.10;;;;;;5114834;27;20630;-72
2023/06/02 12:32:27;;;;;;;3.80;2.67;;;30.80;42.30;;;;;;5093178;27;20663;-72
2023/06/02 12:34:53;;;;;;;2.63;2.43;;;30.80;41.30;;;;;;5108534;28;20627;-71
2023/06/02 12:37:20;;;;;;;2.50;2.30;;;31.70;42.60;;;;;;5116158;27;20647;-72
2023/06/02 12:39:50;;;;;;;3.40;3.20;;;32.50;40.00;;;;;;5113860;27;20629;-72
2023/06/02 12:42:20;;;;;;;3.50;2.77;;;32.60;39.70;;;;;;5108903;27;20652;-72
2023/06/02 12:44:48;;;;;;;2.63;2.43;;;32.60;39.30;;;;;;5107430;27;20637;-72
2023/06/02 12:47:16;;;;;;;2.63;2.43;;;33.10;38.90;;;;;;5121783;27;22629;-72
2023/06/02 12:49:47;;;;;;;2.67;2.43;;;33.60;38.20;;;;;;5111307;27;20676;-72
2023/06/02 12:52:14;;;;;;;2.27;2.10;;;32.80;38.80;;;;;;5119702;27;21107;-72
2023/06/02 12:54:40;;;;;;;2.70;2.50;;;32.00;39.70;;;;;;5109924;27;21189;-72
2023/06/02 12:57:09;;;;;;;2.90;2.70;;;33.20;39.40;;;;;;5101314;27;21053;-71